La Vista, Nebraska
Current Conditions -  °F | °C
As of 10:15 AM on Tuesday 21 Oct 2014 (Local Time) from KMLE Reporting Station
Clear Clear  
Wind Chill: 56°   Ceiling: Unl
Heat Index: 56°   Visibility: 10mi
Dew Point: 46°   Wind: 3mph
Humidity: 71%   Direction: 150°SSE
Pressure: 30.12"   Gusts: NA
Location:  41.19°N, 96.04°W
Report Text: KMLE 211515Z AUTO 15003KT 10SM CLR 13/08 A3012 RMK AO2 T01310080
Loading
Personal Weather Stations






























Interactive Weather Map
Tropical Storm Tracking
New forecast layout! Learn more

10-Day Weather Forecast

Advertisements
Track Severe Weather on mobile